sensor_id;sensor_type;location;lat;lon;timestamp;pressure;altitude;pressure_sealevel;temperature
25514;BMP180;48128;54.242;10.280;2022-10-31T00:01:13;101374.00;;;9.50
25514;BMP180;48128;54.242;10.280;2022-10-31T00:03:40;101378.00;;;9.50
25514;BMP180;48128;54.242;10.280;2022-10-31T00:06:07;101380.00;;;9.50
25514;BMP180;48128;54.242;10.280;2022-10-31T00:08:34;101374.00;;;9.50
25514;BMP180;48128;54.242;10.280;2022-10-31T00:11:01;101381.00;;;9.60
25514;BMP180;48128;54.242;10.280;2022-10-31T00:13:28;101376.00;;;9.60
25514;BMP180;48128;54.242;10.280;2022-10-31T00:15:54;101381.00;;;9.60
25514;BMP180;48128;54.242;10.280;2022-10-31T00:18:21;101383.00;;;9.60
25514;BMP180;48128;54.242;10.280;2022-10-31T00:20:48;101380.00;;;9.60
25514;BMP180;48128;54.242;10.280;2022-10-31T00:23:15;101376.00;;;9.60
25514;BMP180;48128;54.242;10.280;2022-10-31T00:25:41;101393.00;;;9.50
25514;BMP180;48128;54.242;10.280;2022-10-31T00:28:09;101387.00;;;9.60
25514;BMP180;48128;54.242;10.280;2022-10-31T00:30:37;101385.00;;;9.50
25514;BMP180;48128;54.242;10.280;2022-10-31T00:33:04;101395.00;;;9.50
25514;BMP180;48128;54.242;10.280;2022-10-31T00:35:31;101398.00;;;9.50
25514;BMP180;48128;54.242;10.280;2022-10-31T00:37:58;101391.00;;;9.50
25514;BMP180;48128;54.242;10.280;2022-10-31T00:40:25;101402.00;;;9.50
25514;BMP180;48128;54.242;10.280;2022-10-31T00:42:52;101398.00;;;9.50
25514;BMP180;48128;54.242;10.280;2022-10-31T00:45:19;101400.00;;;9.60
25514;BMP180;48128;54.242;10.280;2022-10-31T00:47:46;101389.00;;;9.60
25514;BMP180;48128;54.242;10.280;2022-10-31T00:50:12;101393.00;;;9.60
25514;BMP180;48128;54.242;10.280;2022-10-31T00:52:39;101394.00;;;9.60
25514;BMP180;48128;54.242;10.280;2022-10-31T00:55:06;101403.00;;;9.50
25514;BMP180;48128;54.242;10.280;2022-10-31T00:57:33;101393.00;;;9.50
25514;BMP180;48128;54.242;10.280;2022-10-31T01:00:00;101396.00;;;9.50
25514;BMP180;48128;54.242;10.280;2022-10-31T01:02:26;101400.00;;;9.40
25514;BMP180;48128;54.242;10.280;2022-10-31T01:04:53;101398.00;;;9.40
25514;BMP180;48128;54.242;10.280;2022-10-31T01:07:20;101406.00;;;9.40
25514;BMP180;48128;54.242;10.280;2022-10-31T01:09:47;101395.00;;;9.30
25514;BMP180;48128;54.242;10.280;2022-10-31T01:12:14;101405.00;;;9.30
25514;BMP180;48128;54.242;10.280;2022-10-31T01:14:44;101409.00;;;9.30
25514;BMP180;48128;54.242;10.280;2022-10-31T01:17:12;101399.00;;;9.30
25514;BMP180;48128;54.242;10.280;2022-10-31T01:19:39;101413.00;;;9.30
25514;BMP180;48128;54.242;10.280;2022-10-31T01:22:06;101409.00;;;9.30
25514;BMP180;48128;54.242;10.280;2022-10-31T01:24:33;101394.00;;;9.30
25514;BMP180;48128;54.242;10.280;2022-10-31T01:27:00;101394.00;;;9.30
25514;BMP180;48128;54.242;10.280;2022-10-31T01:29:26;101396.00;;;9.30
25514;BMP180;48128;54.242;10.280;2022-10-31T01:31:53;101406.00;;;9.30
25514;BMP180;48128;54.242;10.280;2022-10-31T01:34:20;101390.00;;;9.30
25514;BMP180;48128;54.242;10.280;2022-10-31T01:36:47;101399.00;;;9.30
25514;BMP180;48128;54.242;10.280;2022-10-31T01:39:17;101398.00;;;9.20
25514;BMP180;48128;54.242;10.280;2022-10-31T01:41:51;101398.00;;;9.20
25514;BMP180;48128;54.242;10.280;2022-10-31T01:49:46;101398.00;;;9.20
25514;BMP180;48128;54.242;10.280;2022-10-31T01:52:20;101410.00;;;9.20
25514;BMP180;48128;54.242;10.280;2022-10-31T01:54:57;101412.00;;;9.30
25514;BMP180;48128;54.242;10.280;2022-10-31T01:57:25;101421.00;;;9.30
25514;BMP180;48128;54.242;10.280;2022-10-31T01:59:55;101429.00;;;9.40
25514;BMP180;48128;54.242;10.280;2022-10-31T02:02:23;101421.00;;;9.40
25514;BMP180;48128;54.242;10.280;2022-10-31T02:04:51;101425.00;;;9.40
25514;BMP180;48128;54.242;10.280;2022-10-31T02:07:24;101429.00;;;9.50
25514;BMP180;48128;54.242;10.280;2022-10-31T02:09:53;101436.00;;;9.50
25514;BMP180;48128;54.242;10.280;2022-10-31T02:12:20;101451.00;;;9.60
25514;BMP180;48128;54.242;10.280;2022-10-31T02:14:47;101441.00;;;9.70
25514;BMP180;48128;54.242;10.280;2022-10-31T02:17:14;101439.00;;;9.80
25514;BMP180;48128;54.242;10.280;2022-10-31T02:19:59;101446.00;;;9.90
25514;BMP180;48128;54.242;10.280;2022-10-31T02:31:20;101440.00;;;10.40
25514;BMP180;48128;54.242;10.280;2022-10-31T02:33:51;101437.00;;;10.50
25514;BMP180;48128;54.242;10.280;2022-10-31T02:36:26;101436.00;;;10.60
25514;BMP180;48128;54.242;10.280;2022-10-31T02:42:07;101425.00;;;10.70
25514;BMP180;48128;54.242;10.280;2022-10-31T02:44:51;101434.00;;;10.60
25514;BMP180;48128;54.242;10.280;2022-10-31T02:47:26;101435.00;;;10.50
25514;BMP180;48128;54.242;10.280;2022-10-31T02:49:57;101441.00;;;10.40
25514;BMP180;48128;54.242;10.280;2022-10-31T02:52:30;101446.00;;;10.30
25514;BMP180;48128;54.242;10.280;2022-10-31T02:54:57;101456.00;;;10.30
25514;BMP180;48128;54.242;10.280;2022-10-31T02:57:42;101466.00;;;10.20
25514;BMP180;48128;54.242;10.280;2022-10-31T03:00:09;101450.00;;;10.20
25514;BMP180;48128;54.242;10.280;2022-10-31T03:08:23;101472.00;;;10.30
25514;BMP180;48128;54.242;10.280;2022-10-31T03:10:57;101467.00;;;10.40
25514;BMP180;48128;54.242;10.280;2022-10-31T03:13:35;101474.00;;;10.50
25514;BMP180;48128;54.242;10.280;2022-10-31T03:16:21;101477.00;;;10.50
25514;BMP180;48128;54.242;10.280;2022-10-31T03:18:50;101473.00;;;10.60
25514;BMP180;48128;54.242;10.280;2022-10-31T03:21:26;101464.00;;;10.60
25514;BMP180;48128;54.242;10.280;2022-10-31T03:23:54;101473.00;;;10.70
25514;BMP180;48128;54.242;10.280;2022-10-31T03:26:21;101462.00;;;10.70
25514;BMP180;48128;54.242;10.280;2022-10-31T03:28:57;101465.00;;;10.70
25514;BMP180;48128;54.242;10.280;2022-10-31T03:31:31;101470.00;;;10.80
25514;BMP180;48128;54.242;10.280;2022-10-31T03:34:00;101471.00;;;10.80
25514;BMP180;48128;54.242;10.280;2022-10-31T03:36:29;101477.00;;;10.80
25514;BMP180;48128;54.242;10.280;2022-10-31T03:38:56;101477.00;;;10.80
25514;BMP180;48128;54.242;10.280;2022-10-31T03:41:26;101476.00;;;10.80
25514;BMP180;48128;54.242;10.280;2022-10-31T03:43:56;101488.00;;;10.80
25514;BMP180;48128;54.242;10.280;2022-10-31T03:46:24;101499.00;;;10.80
25514;BMP180;48128;54.242;10.280;2022-10-31T03:48:50;101495.00;;;10.80
25514;BMP180;48128;54.242;10.280;2022-10-31T03:54:41;101500.00;;;10.90
25514;BMP180;48128;54.242;10.280;2022-10-31T03:57:16;101497.00;;;10.90
25514;BMP180;48128;54.242;10.280;2022-10-31T03:59:48;101506.00;;;10.90
25514;BMP180;48128;54.242;10.280;2022-10-31T04:02:18;101509.00;;;10.90
25514;BMP180;48128;54.242;10.280;2022-10-31T04:04:48;101510.00;;;10.90
25514;BMP180;48128;54.242;10.280;2022-10-31T04:07:15;101516.00;;;10.90
25514;BMP180;48128;54.242;10.280;2022-10-31T04:09:44;101522.00;;;10.90
25514;BMP180;48128;54.242;10.280;2022-10-31T04:12:13;101519.00;;;11.00
25514;BMP180;48128;54.242;10.280;2022-10-31T04:14:42;101527.00;;;11.00
25514;BMP180;48128;54.242;10.280;2022-10-31T04:17:15;101522.00;;;11.10
25514;BMP180;48128;54.242;10.280;2022-10-31T04:19:42;101529.00;;;11.20
25514;BMP180;48128;54.242;10.280;2022-10-31T04:22:09;101529.00;;;11.20
25514;BMP180;48128;54.242;10.280;2022-10-31T04:24:37;101537.00;;;11.30
25514;BMP180;48128;54.242;10.280;2022-10-31T04:27:05;101545.00;;;11.40
25514;BMP180;48128;54.242;10.280;2022-10-31T04:29:31;101541.00;;;11.40
25514;BMP180;48128;54.242;10.280;2022-10-31T04:31:58;101546.00;;;11.50
25514;BMP180;48128;54.242;10.280;2022-10-31T04:34:25;101548.00;;;11.60
25514;BMP180;48128;54.242;10.280;2022-10-31T04:36:52;101545.00;;;11.70
25514;BMP180;48128;54.242;10.280;2022-10-31T04:39:18;101537.00;;;11.70
25514;BMP180;48128;54.242;10.280;2022-10-31T04:41:52;101540.00;;;11.80
25514;BMP180;48128;54.242;10.280;2022-10-31T04:44:19;101546.00;;;11.80
25514;BMP180;48128;54.242;10.280;2022-10-31T04:46:45;101547.00;;;11.80
25514;BMP180;48128;54.242;10.280;2022-10-31T04:49:12;101533.00;;;11.90
25514;BMP180;48128;54.242;10.280;2022-10-31T04:51:39;101539.00;;;11.80
25514;BMP180;48128;54.242;10.280;2022-10-31T04:54:06;101534.00;;;11.90
25514;BMP180;48128;54.242;10.280;2022-10-31T04:56:33;101531.00;;;11.90
25514;BMP180;48128;54.242;10.280;2022-10-31T04:58:59;101542.00;;;11.90
25514;BMP180;48128;54.242;10.280;2022-10-31T05:01:26;101540.00;;;11.90
25514;BMP180;48128;54.242;10.280;2022-10-31T05:03:54;101530.00;;;11.90
25514;BMP180;48128;54.242;10.280;2022-10-31T05:06:21;101534.00;;;12.00
25514;BMP180;48128;54.242;10.280;2022-10-31T05:08:48;101546.00;;;12.00
25514;BMP180;48128;54.242;10.280;2022-10-31T05:11:15;101549.00;;;12.00
25514;BMP180;48128;54.242;10.280;2022-10-31T05:13:41;101551.00;;;12.00
25514;BMP180;48128;54.242;10.280;2022-10-31T05:16:08;101552.00;;;12.00
25514;BMP180;48128;54.242;10.280;2022-10-31T05:18:35;101549.00;;;12.00
25514;BMP180;48128;54.242;10.280;2022-10-31T05:21:02;101551.00;;;12.00
25514;BMP180;48128;54.242;10.280;2022-10-31T05:23:28;101558.00;;;11.90
25514;BMP180;48128;54.242;10.280;2022-10-31T05:25:55;101558.00;;;11.90
25514;BMP180;48128;54.242;10.280;2022-10-31T05:28:22;101560.00;;;11.90
25514;BMP180;48128;54.242;10.280;2022-10-31T05:30:49;101567.00;;;11.90
25514;BMP180;48128;54.242;10.280;2022-10-31T05:33:15;101560.00;;;11.90
25514;BMP180;48128;54.242;10.280;2022-10-31T05:35:42;101554.00;;;12.00
25514;BMP180;48128;54.242;10.280;2022-10-31T05:38:09;101562.00;;;12.00
25514;BMP180;48128;54.242;10.280;2022-10-31T05:40:36;101559.00;;;12.10
25514;BMP180;48128;54.242;10.280;2022-10-31T05:43:02;101563.00;;;12.10
25514;BMP180;48128;54.242;10.280;2022-10-31T05:45:29;101566.00;;;12.20
25514;BMP180;48128;54.242;10.280;2022-10-31T05:48:01;101571.00;;;12.20
25514;BMP180;48128;54.242;10.280;2022-10-31T05:50:30;101576.00;;;12.20
25514;BMP180;48128;54.242;10.280;2022-10-31T05:53:03;101579.00;;;12.30
25514;BMP180;48128;54.242;10.280;2022-10-31T05:55:30;101572.00;;;12.40
25514;BMP180;48128;54.242;10.280;2022-10-31T05:57:57;101578.00;;;12.40
25514;BMP180;48128;54.242;10.280;2022-10-31T06:00:25;101558.00;;;12.40
25514;BMP180;48128;54.242;10.280;2022-10-31T06:03:00;101571.00;;;12.40
25514;BMP180;48128;54.242;10.280;2022-10-31T06:05:28;101566.00;;;12.50
25514;BMP180;48128;54.242;10.280;2022-10-31T06:07:55;101576.00;;;12.50
25514;BMP180;48128;54.242;10.280;2022-10-31T06:10:23;101586.00;;;12.50
25514;BMP180;48128;54.242;10.280;2022-10-31T06:12:50;101579.00;;;12.50
25514;BMP180;48128;54.242;10.280;2022-10-31T06:15:17;101578.00;;;12.50
25514;BMP180;48128;54.242;10.280;2022-10-31T06:18:05;101574.00;;;12.50
25514;BMP180;48128;54.242;10.280;2022-10-31T06:20:32;101582.00;;;12.50
25514;BMP180;48128;54.242;10.280;2022-10-31T06:22:59;101585.00;;;12.50
25514;BMP180;48128;54.242;10.280;2022-10-31T06:25:28;101577.00;;;12.40
25514;BMP180;48128;54.242;10.280;2022-10-31T06:27:54;101587.00;;;12.40
25514;BMP180;48128;54.242;10.280;2022-10-31T06:30:22;101590.00;;;12.40
25514;BMP180;48128;54.242;10.280;2022-10-31T06:32:49;101581.00;;;12.40
25514;BMP180;48128;54.242;10.280;2022-10-31T06:35:16;101590.00;;;12.40
25514;BMP180;48128;54.242;10.280;2022-10-31T06:37:50;101595.00;;;12.40
25514;BMP180;48128;54.242;10.280;2022-10-31T06:40:17;101601.00;;;12.40
25514;BMP180;48128;54.242;10.280;2022-10-31T06:42:44;101603.00;;;12.40
25514;BMP180;48128;54.242;10.280;2022-10-31T06:45:11;101605.00;;;12.40
25514;BMP180;48128;54.242;10.280;2022-10-31T06:47:38;101613.00;;;12.40
25514;BMP180;48128;54.242;10.280;2022-10-31T06:50:25;101613.00;;;12.40
25514;BMP180;48128;54.242;10.280;2022-10-31T06:52:53;101616.00;;;12.40
25514;BMP180;48128;54.242;10.280;2022-10-31T06:55:20;101609.00;;;12.50
25514;BMP180;48128;54.242;10.280;2022-10-31T06:57:50;101623.00;;;12.50
25514;BMP180;48128;54.242;10.280;2022-10-31T07:00:17;101634.00;;;12.50
25514;BMP180;48128;54.242;10.280;2022-10-31T07:02:56;101633.00;;;12.50
25514;BMP180;48128;54.242;10.280;2022-10-31T07:05:23;101630.00;;;12.50
25514;BMP180;48128;54.242;10.280;2022-10-31T07:07:58;101630.00;;;12.50
25514;BMP180;48128;54.242;10.280;2022-10-31T07:10:28;101636.00;;;12.40
25514;BMP180;48128;54.242;10.280;2022-10-31T07:12:59;101631.00;;;12.40
25514;BMP180;48128;54.242;10.280;2022-10-31T07:15:28;101641.00;;;12.40
25514;BMP180;48128;54.242;10.280;2022-10-31T07:18:03;101636.00;;;12.30
25514;BMP180;48128;54.242;10.280;2022-10-31T07:20:30;101644.00;;;12.20
25514;BMP180;48128;54.242;10.280;2022-10-31T07:22:58;101656.00;;;12.10
25514;BMP180;48128;54.242;10.280;2022-10-31T07:25:25;101653.00;;;12.10
25514;BMP180;48128;54.242;10.280;2022-10-31T07:27:52;101660.00;;;12.00
25514;BMP180;48128;54.242;10.280;2022-10-31T07:30:18;101664.00;;;12.00
25514;BMP180;48128;54.242;10.280;2022-10-31T07:32:47;101668.00;;;12.00
25514;BMP180;48128;54.242;10.280;2022-10-31T07:35:21;101672.00;;;12.00
25514;BMP180;48128;54.242;10.280;2022-10-31T07:37:55;101674.00;;;12.00
25514;BMP180;48128;54.242;10.280;2022-10-31T07:40:24;101674.00;;;12.00
25514;BMP180;48128;54.242;10.280;2022-10-31T07:42:52;101673.00;;;12.00
25514;BMP180;48128;54.242;10.280;2022-10-31T07:45:20;101663.00;;;12.00
25514;BMP180;48128;54.242;10.280;2022-10-31T07:47:49;101674.00;;;12.00
25514;BMP180;48128;54.242;10.280;2022-10-31T07:50:26;101679.00;;;12.00
25514;BMP180;48128;54.242;10.280;2022-10-31T07:53:03;101679.00;;;12.00
25514;BMP180;48128;54.242;10.280;2022-10-31T07:55:31;101682.00;;;12.00
25514;BMP180;48128;54.242;10.280;2022-10-31T07:57:59;101689.00;;;12.00
25514;BMP180;48128;54.242;10.280;2022-10-31T08:00:27;101682.00;;;12.00
25514;BMP180;48128;54.242;10.280;2022-10-31T08:03:03;101686.00;;;12.10
25514;BMP180;48128;54.242;10.280;2022-10-31T08:08:24;101687.00;;;12.00
25514;BMP180;48128;54.242;10.280;2022-10-31T08:10:51;101690.00;;;12.10
25514;BMP180;48128;54.242;10.280;2022-10-31T08:13:17;101684.00;;;12.00
25514;BMP180;48128;54.242;10.280;2022-10-31T08:15:45;101699.00;;;12.00
25514;BMP180;48128;54.242;10.280;2022-10-31T08:18:24;101692.00;;;12.00
25514;BMP180;48128;54.242;10.280;2022-10-31T08:20:51;101705.00;;;12.00
25514;BMP180;48128;54.242;10.280;2022-10-31T08:23:18;101705.00;;;12.00
25514;BMP180;48128;54.242;10.280;2022-10-31T08:25:44;101700.00;;;12.00
25514;BMP180;48128;54.242;10.280;2022-10-31T08:28:13;101719.00;;;12.00
25514;BMP180;48128;54.242;10.280;2022-10-31T08:30:41;101704.00;;;11.90
25514;BMP180;48128;54.242;10.280;2022-10-31T08:33:19;101715.00;;;11.90
25514;BMP180;48128;54.242;10.280;2022-10-31T08:35:47;101713.00;;;12.00
25514;BMP180;48128;54.242;10.280;2022-10-31T08:38:20;101723.00;;;12.00
25514;BMP180;48128;54.242;10.280;2022-10-31T08:40:50;101723.00;;;12.10
25514;BMP180;48128;54.242;10.280;2022-10-31T08:43:17;101720.00;;;12.10
25514;BMP180;48128;54.242;10.280;2022-10-31T08:45:49;101726.00;;;12.10
25514;BMP180;48128;54.242;10.280;2022-10-31T08:48:17;101716.00;;;12.10
25514;BMP180;48128;54.242;10.280;2022-10-31T08:50:47;101723.00;;;12.10
25514;BMP180;48128;54.242;10.280;2022-10-31T08:53:18;101716.00;;;12.10
25514;BMP180;48128;54.242;10.280;2022-10-31T08:56:00;101713.00;;;12.10
25514;BMP180;48128;54.242;10.280;2022-10-31T08:58:27;101716.00;;;12.20
25514;BMP180;48128;54.242;10.280;2022-10-31T09:00:54;101727.00;;;12.20
25514;BMP180;48128;54.242;10.280;2022-10-31T09:03:26;101728.00;;;12.10
25514;BMP180;48128;54.242;10.280;2022-10-31T09:05:58;101717.00;;;12.00
25514;BMP180;48128;54.242;10.280;2022-10-31T09:08:32;101717.00;;;11.90
25514;BMP180;48128;54.242;10.280;2022-10-31T09:11:02;101721.00;;;11.90
25514;BMP180;48128;54.242;10.280;2022-10-31T09:13:29;101725.00;;;11.90
25514;BMP180;48128;54.242;10.280;2022-10-31T09:15:56;101717.00;;;12.00
25514;BMP180;48128;54.242;10.280;2022-10-31T09:18:26;101730.00;;;11.90
25514;BMP180;48128;54.242;10.280;2022-10-31T09:20:57;101732.00;;;12.00
25514;BMP180;48128;54.242;10.280;2022-10-31T09:23:24;101719.00;;;12.00
25514;BMP180;48128;54.242;10.280;2022-10-31T09:25:52;101723.00;;;12.00
25514;BMP180;48128;54.242;10.280;2022-10-31T09:28:21;101722.00;;;12.00
25514;BMP180;48128;54.242;10.280;2022-10-31T09:30:50;101713.00;;;12.00
25514;BMP180;48128;54.242;10.280;2022-10-31T09:33:18;101725.00;;;12.00
25514;BMP180;48128;54.242;10.280;2022-10-31T09:35:45;101724.00;;;12.00
25514;BMP180;48128;54.242;10.280;2022-10-31T09:38:14;101731.00;;;12.00
25514;BMP180;48128;54.242;10.280;2022-10-31T09:41:27;101724.00;;;12.00
25514;BMP180;48128;54.242;10.280;2022-10-31T09:50:24;101727.00;;;12.00
25514;BMP180;48128;54.242;10.280;2022-10-31T09:52:31;101721.00;;;12.00
25514;BMP180;48128;54.242;10.280;2022-10-31T09:55:41;101714.00;;;12.10
25514;BMP180;48128;54.242;10.280;2022-10-31T09:58:27;101721.00;;;12.10
25514;BMP180;48128;54.242;10.280;2022-10-31T10:00:56;101718.00;;;12.10
25514;BMP180;48128;54.242;10.280;2022-10-31T10:03:34;101728.00;;;12.10
25514;BMP180;48128;54.242;10.280;2022-10-31T10:06:47;101722.00;;;12.20
25514;BMP180;48128;54.242;10.280;2022-10-31T10:09:07;101724.00;;;12.20
25514;BMP180;48128;54.242;10.280;2022-10-31T10:12:08;101722.00;;;12.20
25514;BMP180;48128;54.242;10.280;2022-10-31T10:15:13;101736.00;;;12.30
25514;BMP180;48128;54.242;10.280;2022-10-31T10:17:58;101729.00;;;12.40
25514;BMP180;48128;54.242;10.280;2022-10-31T10:26:30;101731.00;;;12.40
25514;BMP180;48128;54.242;10.280;2022-10-31T10:29:01;101732.00;;;12.40
25514;BMP180;48128;54.242;10.280;2022-10-31T10:31:37;101730.00;;;12.50
25514;BMP180;48128;54.242;10.280;2022-10-31T10:34:17;101727.00;;;12.50
25514;BMP180;48128;54.242;10.280;2022-10-31T10:36:58;101725.00;;;12.60
25514;BMP180;48128;54.242;10.280;2022-10-31T10:39:35;101729.00;;;12.60
25514;BMP180;48128;54.242;10.280;2022-10-31T10:42:14;101734.00;;;12.70
25514;BMP180;48128;54.242;10.280;2022-10-31T10:45:00;101731.00;;;12.80
25514;BMP180;48128;54.242;10.280;2022-10-31T10:47:51;101738.00;;;12.80
25514;BMP180;48128;54.242;10.280;2022-10-31T10:50:31;101733.00;;;12.90
25514;BMP180;48128;54.242;10.280;2022-10-31T10:56:30;101731.00;;;12.90
25514;BMP180;48128;54.242;10.280;2022-10-31T10:59:00;101720.00;;;13.00
25514;BMP180;48128;54.242;10.280;2022-10-31T11:01:29;101714.00;;;13.00
25514;BMP180;48128;54.242;10.280;2022-10-31T11:03:57;101715.00;;;13.00
25514;BMP180;48128;54.242;10.280;2022-10-31T11:06:29;101709.00;;;13.10
25514;BMP180;48128;54.242;10.280;2022-10-31T11:08:56;101705.00;;;13.10
25514;BMP180;48128;54.242;10.280;2022-10-31T11:13:57;101710.00;;;13.30
25514;BMP180;48128;54.242;10.280;2022-10-31T11:18:52;101713.00;;;13.30
25514;BMP180;48128;54.242;10.280;2022-10-31T11:21:28;101714.00;;;13.40
25514;BMP180;48128;54.242;10.280;2022-10-31T11:26:38;101691.00;;;13.40
25514;BMP180;48128;54.242;10.280;2022-10-31T11:29:17;101690.00;;;13.40
25514;BMP180;48128;54.242;10.280;2022-10-31T11:31:44;101690.00;;;13.50
25514;BMP180;48128;54.242;10.280;2022-10-31T11:34:42;101698.00;;;13.50
25514;BMP180;48128;54.242;10.280;2022-10-31T11:37:13;101692.00;;;13.50
25514;BMP180;48128;54.242;10.280;2022-10-31T11:39:43;101681.00;;;13.50
25514;BMP180;48128;54.242;10.280;2022-10-31T11:42:10;101683.00;;;13.50
25514;BMP180;48128;54.242;10.280;2022-10-31T11:44:41;101676.00;;;13.50
25514;BMP180;48128;54.242;10.280;2022-10-31T11:47:14;101671.00;;;13.50
25514;BMP180;48128;54.242;10.280;2022-10-31T11:49:42;101664.00;;;13.60
25514;BMP180;48128;54.242;10.280;2022-10-31T11:57:48;101654.00;;;13.70
25514;BMP180;48128;54.242;10.280;2022-10-31T12:03:03;101650.00;;;13.70
25514;BMP180;48128;54.242;10.280;2022-10-31T12:05:30;101650.00;;;13.80
25514;BMP180;48128;54.242;10.280;2022-10-31T12:07:59;101654.00;;;13.80
25514;BMP180;48128;54.242;10.280;2022-10-31T12:10:51;101640.00;;;13.80
25514;BMP180;48128;54.242;10.280;2022-10-31T12:16:34;101659.00;;;13.70
25514;BMP180;48128;54.242;10.280;2022-10-31T12:25:02;101647.00;;;13.70
25514;BMP180;48128;54.242;10.280;2022-10-31T12:36:32;101652.00;;;13.70
25514;BMP180;48128;54.242;10.280;2022-10-31T12:51:06;101642.00;;;13.70
25514;BMP180;48128;54.242;10.280;2022-10-31T12:56:53;101646.00;;;13.70
25514;BMP180;48128;54.242;10.280;2022-10-31T12:59:38;101645.00;;;13.70
25514;BMP180;48128;54.242;10.280;2022-10-31T13:04:56;101644.00;;;13.70
25514;BMP180;48128;54.242;10.280;2022-10-31T13:07:28;101653.00;;;13.70
25514;BMP180;48128;54.242;10.280;2022-10-31T13:12:43;101630.00;;;13.70
25514;BMP180;48128;54.242;10.280;2022-10-31T13:15:25;101626.00;;;13.70
25514;BMP180;48128;54.242;10.280;2022-10-31T13:17:55;101627.00;;;13.60
25514;BMP180;48128;54.242;10.280;2022-10-31T13:20:33;101629.00;;;13.60
25514;BMP180;48128;54.242;10.280;2022-10-31T13:23:10;101627.00;;;13.60
25514;BMP180;48128;54.242;10.280;2022-10-31T13:26:03;101613.00;;;13.60
25514;BMP180;48128;54.242;10.280;2022-10-31T13:31:06;101617.00;;;13.60
25514;BMP180;48128;54.242;10.280;2022-10-31T13:33:53;101619.00;;;13.50
25514;BMP180;48128;54.242;10.280;2022-10-31T13:36:26;101612.00;;;13.60
25514;BMP180;48128;54.242;10.280;2022-10-31T13:39:34;101623.00;;;13.60
25514;BMP180;48128;54.242;10.280;2022-10-31T13:42:14;101623.00;;;13.60
25514;BMP180;48128;54.242;10.280;2022-10-31T13:44:42;101616.00;;;13.50
25514;BMP180;48128;54.242;10.280;2022-10-31T13:47:28;101622.00;;;13.50
25514;BMP180;48128;54.242;10.280;2022-10-31T13:50:18;101616.00;;;13.40
25514;BMP180;48128;54.242;10.280;2022-10-31T13:52:46;101618.00;;;13.40
25514;BMP180;48128;54.242;10.280;2022-10-31T13:55:40;101607.00;;;13.40
25514;BMP180;48128;54.242;10.280;2022-10-31T14:03:47;101622.00;;;13.30
25514;BMP180;48128;54.242;10.280;2022-10-31T14:06:53;101623.00;;;13.20
25514;BMP180;48128;54.242;10.280;2022-10-31T14:09:29;101620.00;;;13.10
25514;BMP180;48128;54.242;10.280;2022-10-31T14:11:59;101624.00;;;13.10
25514;BMP180;48128;54.242;10.280;2022-10-31T14:14:32;101617.00;;;13.10
25514;BMP180;48128;54.242;10.280;2022-10-31T14:16:59;101618.00;;;13.00
25514;BMP180;48128;54.242;10.280;2022-10-31T14:19:27;101597.00;;;13.00
25514;BMP180;48128;54.242;10.280;2022-10-31T14:21:54;101588.00;;;13.00
25514;BMP180;48128;54.242;10.280;2022-10-31T14:27:02;101581.00;;;13.00
25514;BMP180;48128;54.242;10.280;2022-10-31T14:29:31;101581.00;;;13.00
25514;BMP180;48128;54.242;10.280;2022-10-31T14:32:05;101577.00;;;13.00
25514;BMP180;48128;54.242;10.280;2022-10-31T14:34:42;101577.00;;;13.00
25514;BMP180;48128;54.242;10.280;2022-10-31T14:37:27;101591.00;;;13.00
25514;BMP180;48128;54.242;10.280;2022-10-31T14:51:16;101569.00;;;12.80
25514;BMP180;48128;54.242;10.280;2022-10-31T14:53:52;101567.00;;;12.80
25514;BMP180;48128;54.242;10.280;2022-10-31T14:56:24;101560.00;;;12.80
25514;BMP180;48128;54.242;10.280;2022-10-31T14:58:52;101554.00;;;12.70
25514;BMP180;48128;54.242;10.280;2022-10-31T15:01:33;101542.00;;;12.70
25514;BMP180;48128;54.242;10.280;2022-10-31T15:04:18;101546.00;;;12.70
25514;BMP180;48128;54.242;10.280;2022-10-31T15:07:14;101543.00;;;12.70
25514;BMP180;48128;54.242;10.280;2022-10-31T15:12:34;101527.00;;;12.50
25514;BMP180;48128;54.242;10.280;2022-10-31T15:17:46;101523.00;;;12.50
25514;BMP180;48128;54.242;10.280;2022-10-31T15:20:23;101520.00;;;12.50
25514;BMP180;48128;54.242;10.280;2022-10-31T15:22:51;101499.00;;;12.50
25514;BMP180;48128;54.242;10.280;2022-10-31T15:25:20;101509.00;;;12.40
25514;BMP180;48128;54.242;10.280;2022-10-31T15:27:48;101497.00;;;12.30
25514;BMP180;48128;54.242;10.280;2022-10-31T15:30:20;101495.00;;;12.30
25514;BMP180;48128;54.242;10.280;2022-10-31T15:32:48;101503.00;;;12.30
25514;BMP180;48128;54.242;10.280;2022-10-31T15:35:28;101500.00;;;12.20
25514;BMP180;48128;54.242;10.280;2022-10-31T15:37:58;101492.00;;;12.20
25514;BMP180;48128;54.242;10.280;2022-10-31T15:40:28;101500.00;;;12.20
25514;BMP180;48128;54.242;10.280;2022-10-31T15:43:03;101506.00;;;12.20
25514;BMP180;48128;54.242;10.280;2022-10-31T15:45:30;101497.00;;;12.20
25514;BMP180;48128;54.242;10.280;2022-10-31T15:48:00;101513.00;;;12.10
25514;BMP180;48128;54.242;10.280;2022-10-31T15:50:36;101523.00;;;12.10
25514;BMP180;48128;54.242;10.280;2022-10-31T15:53:04;101531.00;;;12.10
25514;BMP180;48128;54.242;10.280;2022-10-31T15:55:36;101547.00;;;12.10
25514;BMP180;48128;54.242;10.280;2022-10-31T15:58:10;101543.00;;;12.10
25514;BMP180;48128;54.242;10.280;2022-10-31T16:00:38;101546.00;;;12.10
25514;BMP180;48128;54.242;10.280;2022-10-31T16:11:02;101545.00;;;12.10
25514;BMP180;48128;54.242;10.280;2022-10-31T16:16:27;101538.00;;;12.10
25514;BMP180;48128;54.242;10.280;2022-10-31T16:19:03;101530.00;;;12.10
25514;BMP180;48128;54.242;10.280;2022-10-31T16:21:34;101531.00;;;12.10
25514;BMP180;48128;54.242;10.280;2022-10-31T16:24:25;101522.00;;;12.10
25514;BMP180;48128;54.242;10.280;2022-10-31T16:26:51;101529.00;;;12.10
25514;BMP180;48128;54.242;10.280;2022-10-31T16:29:44;101530.00;;;12.10